首页
METAR-TAF:

METAR-TAF

机场 :

图勒空军基地

图勒, 格陵兰

纬度: 76-32N, 经度: 068-42W, 海拔: 77米

当前天气观测

该预报发布于33分钟前的08:56 UTC
风速10节,风向
温度 -25°C
湿度 83%
气压 1013 hPa
能见度10公里或以上
少量云层高于2000英尺
少量云层高于4900英尺

METAR: BGTL 140856Z AUTO 10010KT 9999 FEW020 FEW049 M25/M27 A2991 RMK AO2 SLP120 T12511272 57010 TSNO $

时间: 05:29 (09:29 UTC)

预报

该预报发布于15小时和29分钟前的18:00 UTC
预报有效从13日的 18点(UTC)到 14日的 24点(UTC)
风速9节,风向东南,在之间变化
能見度: 6000
阴天层高于2200英尺
高吹雪
成为
从 13日的 23点(UTC)到 13日的 24点(UTC)
风速6节,风向南转南东
能见度10公里或以上
少量云层高于1000英尺
阴天层高于2500英尺
成为
从 14日的 07点(UTC)到 14日的 08点(UTC)
风速6节,风向
能見度: 1410
阴天层高于1000英尺

TAF: BGTL 131800Z 1318/1424 14009KT 6000 BLSN OVC022 620224 QNH2999INS WND 090V180 BECMG 1323/1324 15006KT 9999 NSW FEW010 OVC025 620251 QNH2993INS BECMG 1407/1408 17006KT 9999 OVC010 620101 QNH2982INS TXM15/1319Z TNM21/1418Z LAST NO AMDS AFT 1320 NEXT 1410

超过4000个机场的气象观测和天气预报(METAR&TAF报告)。

可查询的气象台以黄色和红色小点在地图上表示。

将鼠标移到小点上方,可查看气象台名称。

然后点击查看天气观测和预报。

如需切换地图:点击带黑十字的绿色按钮放大地图;点击带横线的绿色按钮缩小地图;或者点击绿色箭头查看邻近地区的地图。


METAR-TAF: